Time;durP1;ratioP1;P1;durP2;ratioP2;P2;SDS_P1;SDS_P2;PMS_P1;PMS_P2;Temp;Humidity;BMP_temperature;BMP_pressure;BME280_temperature;BME280_humidity;BME280_pressure;Samples;Min_cycle;Max_cycle;Signal;HPM_P1;HPM_P2
2023/10/11 00:02:59;;;;;;;14.82;10.07;;;;;;;14.45;100.00;100776.38;4967333;28;20676;-43
2023/10/11 00:05:33;;;;;;;15.50;9.82;;;;;;;14.43;100.00;100765.72;4967660;28;20197;-43
2023/10/11 00:08:00;;;;;;;19.85;10.23;;;;;;;14.40;100.00;100755.06;4969842;28;20228;-42
2023/10/11 00:10:25;;;;;;;13.88;10.23;;;;;;;14.36;100.00;100748.09;4970617;28;20617;-42
2023/10/11 00:12:52;;;;;;;14.45;10.48;;;;;;;14.36;100.00;100756.19;4964546;28;20286;-41
2023/10/11 00:15:17;;;;;;;19.85;11.05;;;;;;;14.38;100.00;100741.69;4965782;28;20260;-42
2023/10/11 00:17:46;;;;;;;14.30;9.50;;;;;;;14.34;100.00;100756.31;4967995;28;20186;-41
2023/10/11 00:20:19;;;;;;;17.63;9.15;;;;;;;14.36;100.00;100753.50;4968314;28;20186;-42
2023/10/11 00:22:45;;;;;;;15.32;9.15;;;;;;;14.29;100.00;100747.59;4965676;28;20182;-42
2023/10/11 00:25:23;;;;;;;20.60;10.48;;;;;;;14.24;100.00;100755.06;4965796;28;20182;-41
2023/10/11 00:27:49;;;;;;;14.68;9.55;;;;;;;14.21;100.00;100761.50;4972091;28;20264;-42
2023/10/11 00:30:17;;;;;;;14.25;8.90;;;;;;;14.22;100.00;100746.19;4952394;28;20188;-43
2023/10/11 00:32:45;;;;;;;14.88;9.60;;;;;;;14.21;100.00;100739.03;4966761;28;20178;-42
2023/10/11 00:35:18;;;;;;;19.67;9.40;;;;;;;14.17;100.00;100735.66;4965953;28;20241;-42
2023/10/11 00:37:49;;;;;;;15.32;9.52;;;;;;;14.22;100.00;100730.03;4970171;28;20278;-43
2023/10/11 00:40:25;;;;;;;14.80;8.77;;;;;;;14.19;100.00;100731.06;4955260;28;20174;-41
2023/10/11 00:42:51;;;;;;;12.05;7.88;;;;;;;14.16;100.00;100723.13;4964687;28;20205;-44
2023/10/11 00:45:17;;;;;;;13.30;9.25;;;;;;;14.12;100.00;100724.25;4968969;28;20186;-44
2023/10/11 00:47:45;;;;;;;11.05;7.78;;;;;;;14.08;100.00;100716.41;4971943;28;20189;-43
2023/10/11 00:50:14;;;;;;;16.45;9.10;;;;;;;14.09;100.00;100710.94;4955473;28;20210;-44
2023/10/11 00:52:42;;;;;;;14.90;8.50;;;;;;;14.10;100.00;100706.44;4968721;28;20190;-42
2023/10/11 00:55:16;;;;;;;12.35;8.60;;;;;;;14.08;100.00;100713.72;4954956;28;20272;-43
2023/10/11 00:57:45;;;;;;;12.65;8.48;;;;;;;14.05;100.00;100713.91;4950831;28;20288;-43
2023/10/11 01:00:14;;;;;;;14.57;8.45;;;;;;;14.08;100.00;100714.63;4968973;28;20178;-43
2023/10/11 01:02:39;;;;;;;15.57;8.40;;;;;;;14.06;100.00;100702.16;4968328;28;20240;-44
2023/10/11 01:05:06;;;;;;;21.90;8.50;;;;;;;14.00;100.00;100698.00;4967466;28;20174;-44
2023/10/11 01:07:32;;;;;;;14.95;8.30;;;;;;;14.04;100.00;100712.16;4967941;28;20190;-44
2023/10/11 01:09:58;;;;;;;15.05;8.57;;;;;;;14.05;100.00;100709.38;4952935;28;20181;-43
2023/10/11 01:12:23;;;;;;;15.00;8.40;;;;;;;14.01;100.00;100706.00;4953200;28;20192;-43
2023/10/11 01:14:58;;;;;;;13.00;8.27;;;;;;;13.99;100.00;100693.53;4968356;28;20572;-43
2023/10/11 01:17:31;;;;;;;12.18;8.15;;;;;;;13.97;100.00;100685.56;4971306;28;20196;-44
2023/10/11 01:20:00;;;;;;;16.77;8.63;;;;;;;13.98;100.00;100695.38;4966246;28;20185;-45
2023/10/11 01:22:28;;;;;;;18.80;8.20;;;;;;;14.01;100.00;100691.63;4949532;28;20651;-43
2023/10/11 01:24:55;;;;;;;16.20;7.93;;;;;;;13.95;100.00;100687.47;4964185;28;20207;-43
2023/10/11 01:27:30;;;;;;;14.20;8.27;;;;;;;13.99;100.00;100680.97;4968331;28;20185;-43
2023/10/11 01:29:57;;;;;;;13.85;8.02;;;;;;;14.04;100.00;100679.81;4958683;28;20194;-40
2023/10/11 01:32:23;;;;;;;18.35;8.02;;;;;;;14.04;100.00;100650.19;4968335;28;20265;-44
2023/10/11 01:34:49;;;;;;;11.85;7.78;;;;;;;14.05;100.00;100654.63;4969469;28;20218;-43
2023/10/11 01:37:17;;;;;;;13.68;7.45;;;;;;;14.04;100.00;100669.94;4970809;28;20195;-44
2023/10/11 01:39:43;;;;;;;15.23;7.72;;;;;;;14.06;100.00;100659.06;4965142;28;20191;-42
2023/10/11 01:42:09;;;;;;;14.45;7.70;;;;;;;14.04;100.00;100653.78;4965954;28;20609;-42
2023/10/11 01:44:36;;;;;;;14.23;7.40;;;;;;;14.07;100.00;100664.38;4963262;28;20200;-44
2023/10/11 01:47:01;;;;;;;13.27;7.28;;;;;;;14.01;100.00;100662.00;4965022;28;20611;-43
2023/10/11 01:49:27;;;;;;;16.33;7.95;;;;;;;14.04;100.00;100655.56;4964977;28;20186;-45
2023/10/11 01:51:54;;;;;;;16.65;8.23;;;;;;;14.05;100.00;100646.56;4965015;28;20371;-43
2023/10/11 01:54:22;;;;;;;13.48;7.53;;;;;;;14.05;100.00;100646.56;4966764;28;20206;-43
2023/10/11 01:56:52;;;;;;;14.18;8.15;;;;;;;14.06;100.00;100621.34;4946216;28;20271;-43
2023/10/11 01:59:18;;;;;;;15.27;8.02;;;;;;;14.05;100.00;100611.53;4945622;28;20197;-42
2023/10/11 02:01:54;;;;;;;11.93;7.15;;;;;;;14.04;100.00;100634.91;4965712;28;20212;-43
2023/10/11 02:04:20;;;;;;;13.70;7.47;;;;;;;14.00;100.00;100642.28;4951120;28;20229;-43
2023/10/11 02:06:49;;;;;;;14.55;7.45;;;;;;;13.94;100.00;100645.31;4960762;28;20257;-43
2023/10/11 02:09:19;;;;;;;15.40;8.10;;;;;;;14.00;100.00;100633.34;4962688;28;20186;-43
2023/10/11 02:11:45;;;;;;;13.93;7.75;;;;;;;14.00;100.00;100627.97;4967880;28;20268;-42
2023/10/11 02:14:13;;;;;;;16.27;7.35;;;;;;;13.96;100.00;100623.69;4964109;28;20285;-42
2023/10/11 02:16:39;;;;;;;20.45;7.85;;;;;;;13.97;100.00;100626.31;4962710;28;20177;-43
2023/10/11 02:19:05;;;;;;;12.82;7.97;;;;;;;13.93;100.00;100630.13;4969884;28;20174;-44
2023/10/11 02:21:30;;;;;;;13.45;7.43;;;;;;;13.91;100.00;100620.41;4968482;28;20186;-43
2023/10/11 02:23:57;;;;;;;12.95;8.02;;;;;;;13.84;100.00;100614.47;4966831;28;20198;-44
2023/10/11 02:26:34;;;;;;;11.98;7.38;;;;;;;13.82;100.00;100616.38;4964498;28;20190;-43
2023/10/11 02:29:06;;;;;;;16.77;8.50;;;;;;;13.80;100.00;100610.22;4964769;28;20239;-44
2023/10/11 02:31:33;;;;;;;12.70;7.85;;;;;;;13.79;100.00;100608.47;4948614;28;20186;-45
2023/10/11 02:34:14;;;;;;;10.25;7.20;;;;;;;13.81;100.00;100603.88;4967618;28;20218;-46
2023/10/11 02:36:42;;;;;;;16.20;7.43;;;;;;;13.79;100.00;100597.69;4963504;28;20309;-45
2023/10/11 02:39:17;;;;;;;12.70;8.35;;;;;;;13.77;100.00;100599.59;4966501;28;20194;-45
2023/10/11 02:41:46;;;;;;;13.43;8.27;;;;;;;13.76;100.00;100587.97;4963187;28;20233;-46
2023/10/11 02:44:12;;;;;;;14.98;8.07;;;;;;;13.72;100.00;100588.22;4944559;28;20567;-47
2023/10/11 02:46:42;;;;;;;16.60;8.32;;;;;;;13.72;100.00;100580.16;4953526;28;20209;-45
2023/10/11 02:49:18;;;;;;;12.65;7.85;;;;;;;13.69;100.00;100581.19;4965800;28;20252;-45
2023/10/11 02:52:05;;;;;;;19.65;8.75;;;;;;;13.71;100.00;100586.47;4971127;28;20197;-46
2023/10/11 02:54:34;;;;;;;19.02;8.80;;;;;;;13.77;100.00;100589.72;4965379;28;20202;-45
2023/10/11 02:57:05;;;;;;;12.40;8.02;;;;;;;13.76;100.00;100587.09;4973186;28;20178;-47
2023/10/11 02:59:33;;;;;;;17.52;8.43;;;;;;;13.72;100.00;100589.09;4971025;28;20176;-47
2023/10/11 03:01:59;;;;;;;17.63;8.55;;;;;;;13.74;100.00;100592.56;4953533;28;20182;-45
2023/10/11 03:04:42;;;;;;;15.38;8.15;;;;;;;13.70;100.00;100593.69;4953901;28;20195;-45
2023/10/11 03:07:14;;;;;;;15.07;8.00;;;;;;;13.73;100.00;100592.63;4969960;28;20181;-46
2023/10/11 03:09:40;;;;;;;15.65;8.27;;;;;;;13.71;100.00;100581.09;4967380;28;20205;-45
2023/10/11 03:12:19;;;;;;;18.40;9.10;;;;;;;13.70;100.00;100585.59;4956965;28;20570;-45
2023/10/11 03:14:46;;;;;;;15.18;8.45;;;;;;;13.69;100.00;100585.72;4963428;28;20214;-46
2023/10/11 03:17:15;;;;;;;15.43;8.45;;;;;;;13.73;100.00;100579.19;4972774;28;20183;-46
2023/10/11 03:19:45;;;;;;;17.90;8.32;;;;;;;13.69;100.00;100581.19;4968427;28;20166;-45
2023/10/11 03:22:20;;;;;;;15.25;8.35;;;;;;;13.67;100.00;100579.53;4968480;28;20187;-44
2023/10/11 03:24:53;;;;;;;14.05;7.85;;;;;;;13.64;100.00;100585.06;4975644;28;20292;-44
2023/10/11 03:27:23;;;;;;;16.55;8.63;;;;;;;13.61;100.00;100572.66;4954637;29;20209;-46
2023/10/11 03:29:50;;;;;;;14.90;8.95;;;;;;;13.59;100.00;100553.88;4971908;28;20232;-45
2023/10/11 03:32:18;;;;;;;16.95;9.18;;;;;;;13.59;100.00;100553.03;4968096;28;20182;-45
2023/10/11 03:34:43;;;;;;;16.52;8.73;;;;;;;13.57;100.00;100558.47;4975230;28;20202;-44
2023/10/11 03:37:10;;;;;;;17.17;9.60;;;;;;;13.60;100.00;100544.88;4965348;28;20182;-45
2023/10/11 03:44:40;;;;;;;16.95;9.10;;;;;;;13.47;100.00;100542.91;4970875;28;20302;-46
2023/10/11 03:47:08;;;;;;;13.30;9.50;;;;;;;13.52;100.00;100551.63;4972263;28;20182;-45
2023/10/11 03:52:24;;;;;;;16.75;10.00;;;;;;;13.53;100.00;100550.66;4964342;28;20178;-46
2023/10/11 03:55:09;;;;;;;15.60;9.10;;;;;;;13.51;100.00;100553.47;4969483;28;20209;-46
2023/10/11 03:57:40;;;;;;;17.75;8.57;;;;;;;13.54;100.00;100572.13;4968647;28;20360;-46
2023/10/11 04:00:19;;;;;;;19.98;9.88;;;;;;;13.53;100.00;100556.06;4953183;28;20695;-45
2023/10/11 04:02:44;;;;;;;16.70;9.85;;;;;;;13.52;100.00;100541.72;4974333;28;20158;-47
2023/10/11 04:05:09;;;;;;;18.20;9.88;;;;;;;13.55;100.00;100543.38;4970328;28;20186;-47
2023/10/11 04:07:35;;;;;;;19.95;10.40;;;;;;;13.55;100.00;100552.31;4969888;28;20236;-48
2023/10/11 04:10:09;;;;;;;18.50;10.32;;;;;;;13.54;100.00;100547.03;4973430;28;20673;-46
2023/10/11 04:12:38;;;;;;;19.75;10.30;;;;;;;13.54;100.00;100545.22;4965385;28;20237;-45
2023/10/11 04:15:15;;;;;;;23.05;10.40;;;;;;;13.57;100.00;100545.03;4967287;28;20739;-45
2023/10/11 04:17:41;;;;;;;20.10;9.82;;;;;;;13.57;100.00;100541.47;4973750;28;20182;-46
2023/10/11 04:20:59;;;;;;;18.88;10.07;;;;;;;13.60;100.00;100530.56;4965816;28;20281;-47
2023/10/11 04:23:10;;;;;;;22.85;11.15;;;;;;;13.59;100.00;100523.41;4950110;28;20210;-46
2023/10/11 04:25:39;;;;;;;21.40;10.50;;;;;;;13.61;100.00;100521.50;4955154;28;20298;-45
2023/10/11 04:28:05;;;;;;;24.40;11.63;;;;;;;13.62;100.00;100531.31;4959241;28;20170;-46
2023/10/11 04:30:41;;;;;;;24.85;10.30;;;;;;;13.66;100.00;100532.88;4963128;28;20166;-46
2023/10/11 04:33:11;;;;;;;25.20;10.57;;;;;;;13.65;100.00;100530.28;4966914;28;20722;-47
2023/10/11 04:35:37;;;;;;;21.60;10.48;;;;;;;13.64;100.00;100534.78;4971708;28;20185;-46
2023/10/11 04:38:04;;;;;;;16.45;10.30;;;;;;;13.65;100.00;100523.09;4966393;28;20179;-44
2023/10/11 04:43:06;;;;;;;22.05;11.30;;;;;;;13.68;100.00;100544.44;4969655;28;20210;-47
2023/10/11 04:45:44;;;;;;;20.60;11.43;;;;;;;13.69;100.00;100529.19;4994387;23;20230;-48
2023/10/11 04:48:15;;;;;;;18.95;10.38;;;;;;;13.70;100.00;100533.59;4970256;28;20605;-48
2023/10/11 04:50:45;;;;;;;26.85;11.15;;;;;;;13.70;100.00;100521.00;4971348;28;20191;-48
2023/10/11 04:53:18;;;;;;;20.90;11.27;;;;;;;13.75;100.00;100535.09;4969407;28;20210;-49
2023/10/11 04:55:59;;;;;;;25.65;11.82;;;;;;;13.74;100.00;100535.16;4964307;28;20181;-47
2023/10/11 04:58:41;;;;;;;21.02;11.60;;;;;;;13.79;100.00;100533.06;4962284;28;20193;-47
2023/10/11 05:01:11;;;;;;;19.00;10.73;;;;;;;13.87;100.00;100538.03;4959964;28;20181;-48
2023/10/11 05:03:38;;;;;;;24.35;11.23;;;;;;;13.87;100.00;100525.44;4962605;28;20307;-47
2023/10/11 05:06:14;;;;;;;25.80;12.40;;;;;;;13.88;100.00;100521.75;4962084;28;20649;-46
2023/10/11 05:08:54;;;;;;;28.55;11.32;;;;;;;13.92;100.00;100514.38;4959366;28;20201;-46
2023/10/11 05:11:32;;;;;;;26.75;12.52;;;;;;;13.96;100.00;100514.13;4961050;28;20274;-46
2023/10/11 05:14:05;;;;;;;27.20;12.27;;;;;;;13.99;100.00;100499.59;4964356;28;20214;-47
2023/10/11 05:16:37;;;;;;;25.00;12.00;;;;;;;13.98;100.00;100496.06;4961838;28;20177;-46
2023/10/11 05:19:05;;;;;;;29.70;13.00;;;;;;;14.04;100.00;100519.09;4961970;28;20205;-48
2023/10/11 05:21:38;;;;;;;26.23;13.38;;;;;;;14.06;100.00;100527.06;4959353;28;20270;-46
2023/10/11 05:24:29;;;;;;;27.27;12.48;;;;;;;14.10;100.00;100523.22;4962537;28;20699;-48
2023/10/11 05:27:11;;;;;;;30.15;12.63;;;;;;;14.16;100.00;100544.44;4965493;28;20599;-47
2023/10/11 05:30:06;;;;;;;29.85;13.00;;;;;;;14.19;100.00;100549.63;4963327;28;20237;-47
2023/10/11 05:32:32;;;;;;;30.33;13.43;;;;;;;14.24;100.00;100552.09;4964323;28;20850;-47
2023/10/11 05:35:19;;;;;;;24.60;12.27;;;;;;;14.29;100.00;100558.06;4962923;28;20217;-48
2023/10/11 05:51:27;;;;;;;23.42;12.43;;;;;;;14.52;100.00;100537.84;4959402;28;20189;-46
2023/10/11 05:53:54;;;;;;;29.77;12.95;;;;;;;14.55;100.00;100538.56;4959388;28;20194;-47
2023/10/11 05:56:22;;;;;;;29.95;11.88;;;;;;;14.58;100.00;100526.72;4963961;28;20284;-46
2023/10/11 05:58:50;;;;;;;28.83;12.20;;;;;;;14.60;100.00;100528.38;4962686;28;20249;-46
2023/10/11 06:01:21;;;;;;;27.00;13.07;;;;;;;14.60;100.00;100508.63;4961315;28;20208;-46
2023/10/11 06:03:51;;;;;;;22.58;12.50;;;;;;;14.61;100.00;100518.47;4961179;28;20213;-48
2023/10/11 06:06:38;;;;;;;30.70;12.65;;;;;;;14.65;100.00;100530.81;4962490;28;20548;-48
2023/10/11 06:09:27;;;;;;;28.48;12.30;;;;;;;14.70;100.00;100515.22;4962500;28;20313;-45
2023/10/11 06:11:53;;;;;;;35.08;12.52;;;;;;;14.74;100.00;100521.31;4959372;28;20189;-46
2023/10/11 06:14:20;;;;;;;27.20;12.38;;;;;;;14.74;100.00;100519.47;4962175;28;20221;-46
2023/10/11 06:16:57;;;;;;;26.90;13.00;;;;;;;14.79;100.00;100517.34;4961990;28;20277;-45
2023/10/11 06:19:27;;;;;;;33.90;12.18;;;;;;;14.82;100.00;100516.28;4952354;28;20195;-47
2023/10/11 06:21:58;;;;;;;34.65;12.85;;;;;;;14.87;100.00;100503.41;4961113;28;20201;-46
2023/10/11 06:24:33;;;;;;;28.08;12.20;;;;;;;14.92;100.00;100509.38;4960508;28;20241;-47
2023/10/11 06:29:53;;;;;;;25.88;13.20;;;;;;;14.96;100.00;100500.13;4961774;28;20191;-47
2023/10/11 06:32:20;;;;;;;27.80;13.20;;;;;;;14.97;100.00;100503.69;4965195;28;20185;-46
2023/10/11 06:34:47;;;;;;;32.55;12.90;;;;;;;14.98;100.00;100503.59;4960990;28;20292;-48
2023/10/11 06:37:18;;;;;;;29.00;12.15;;;;;;;15.03;100.00;100509.56;4961525;28;20189;-46
2023/10/11 06:42:21;;;;;;;29.27;12.35;;;;;;;15.11;100.00;100508.22;4957955;28;20201;-47
2023/10/11 06:44:49;;;;;;;25.70;11.38;;;;;;;15.10;100.00;100488.47;4962926;28;20201;-48
2023/10/11 06:47:15;;;;;;;31.90;12.07;;;;;;;15.10;100.00;100480.38;4960287;28;20615;-46
2023/10/11 06:49:44;;;;;;;27.95;12.15;;;;;;;15.17;100.00;100480.88;4961550;28;20265;-45
2023/10/11 06:52:11;;;;;;;30.35;11.90;;;;;;;15.17;100.00;100487.13;4959291;28;20641;-47
2023/10/11 06:54:45;;;;;;;28.45;11.13;;;;;;;15.18;100.00;100483.47;4965186;28;20222;-46
2023/10/11 06:57:21;;;;;;;25.92;11.35;;;;;;;15.19;100.00;100487.03;4962893;28;20194;-45
2023/10/11 06:59:50;;;;;;;29.27;12.60;;;;;;;15.23;100.00;100502.06;4962698;28;20186;-47
2023/10/11 07:02:31;;;;;;;34.00;13.00;;;;;;;15.29;100.00;100504.38;4962697;28;20190;-48
2023/10/11 07:05:07;;;;;;;35.15;11.93;;;;;;;15.31;100.00;100515.97;4962177;28;20186;-46
2023/10/11 07:07:33;;;;;;;27.27;11.32;;;;;;;15.37;100.00;100498.50;4963187;28;20579;-46
2023/10/11 07:10:01;;;;;;;29.55;11.52;;;;;;;15.43;100.00;100519.69;4943938;28;20217;-46
2023/10/11 07:12:39;;;;;;;26.77;11.32;;;;;;;15.40;100.00;100519.91;4962332;28;20248;-45
2023/10/11 07:15:09;;;;;;;31.60;11.68;;;;;;;15.41;100.00;100522.53;4960303;28;20620;-45
2023/10/11 07:17:36;;;;;;;39.88;12.68;;;;;;;15.41;100.00;100516.22;4957407;28;20187;-47
2023/10/11 07:20:12;;;;;;;31.80;11.45;;;;;;;15.49;100.00;100529.25;4961979;28;20579;-47
2023/10/11 07:22:39;;;;;;;31.38;11.13;;;;;;;15.47;100.00;100523.94;4960860;28;20194;-45
2023/10/11 07:25:36;;;;;;;22.50;10.95;;;;;;;15.49;100.00;100502.25;4962830;28;20198;-46
2023/10/11 07:27:53;;;;;;;33.88;11.68;;;;;;;15.47;100.00;100515.84;4963302;28;20606;-47
2023/10/11 07:30:19;;;;;;;31.02;11.30;;;;;;;15.53;100.00;100495.69;4965801;28;20202;-46
2023/10/11 07:32:45;;;;;;;27.60;10.82;;;;;;;15.52;100.00;100492.09;4960868;28;20188;-47
2023/10/11 07:35:19;;;;;;;27.27;11.02;;;;;;;15.50;100.00;100499.44;4959392;28;20587;-47
2023/10/11 07:37:45;;;;;;;24.95;10.60;;;;;;;15.51;100.00;100490.38;4962011;28;20186;-46
2023/10/11 07:40:18;;;;;;;28.88;10.80;;;;;;;15.55;100.00;100491.94;4965001;28;20187;-45
2023/10/11 07:42:44;;;;;;;29.92;10.63;;;;;;;15.57;100.00;100510.75;4962932;28;20201;-47
2023/10/11 07:45:12;;;;;;;25.80;10.85;;;;;;;15.58;100.00;100502.53;4959942;28;20245;-47
2023/10/11 07:47:45;;;;;;;22.42;10.38;;;;;;;15.61;100.00;100494.25;4966382;28;20252;-47
2023/10/11 07:50:14;;;;;;;26.73;10.02;;;;;;;15.62;100.00;100485.16;4964691;28;21061;-46
2023/10/11 07:52:43;;;;;;;25.58;9.98;;;;;;;15.62;100.00;100495.09;4965881;28;20656;-45
2023/10/11 07:55:12;;;;;;;25.35;9.55;;;;;;;15.67;100.00;100487.56;4964074;28;20321;-46
2023/10/11 07:57:44;;;;;;;28.00;9.70;;;;;;;15.72;100.00;100501.69;4966070;28;20200;-45
2023/10/11 08:00:17;;;;;;;28.60;9.25;;;;;;;15.70;100.00;100494.59;4960645;28;20190;-46
2023/10/11 08:03:07;;;;;;;27.27;9.32;;;;;;;15.75;100.00;100506.00;4962498;28;20186;-47
2023/10/11 08:05:45;;;;;;;23.20;9.13;;;;;;;15.75;100.00;100495.22;4967353;28;20218;-45
2023/10/11 08:08:13;;;;;;;23.65;8.90;;;;;;;15.78;100.00;100489.59;4963980;28;20578;-47
2023/10/11 08:10:44;;;;;;;23.23;8.88;;;;;;;15.86;100.00;100479.16;4967928;28;20225;-48
2023/10/11 08:13:25;;;;;;;23.25;7.97;;;;;;;15.88;100.00;100498.84;4952225;28;20213;-46
2023/10/11 08:15:57;;;;;;;23.48;8.55;;;;;;;15.93;100.00;100480.47;4964032;28;20181;-46
2023/10/11 08:18:23;;;;;;;17.02;8.27;;;;;;;15.97;100.00;100476.59;4964988;28;20195;-46
2023/10/11 08:20:49;;;;;;;21.13;7.63;;;;;;;16.02;100.00;100479.84;4963009;28;20218;-47
2023/10/11 08:23:28;;;;;;;21.60;7.90;;;;;;;16.05;100.00;100484.22;4965517;28;20216;-46
2023/10/11 08:25:55;;;;;;;17.63;7.18;;;;;;;16.11;100.00;100491.03;4963760;28;20660;-46
2023/10/11 08:28:28;;;;;;;20.58;7.53;;;;;;;16.09;100.00;100482.16;4960979;28;20285;-48
2023/10/11 08:30:57;;;;;;;19.83;7.05;;;;;;;16.03;100.00;100476.22;4955852;28;20462;-45
2023/10/11 08:33:25;;;;;;;14.77;6.82;;;;;;;16.05;100.00;100495.03;4962659;28;20723;-46
2023/10/11 08:35:53;;;;;;;27.63;7.93;;;;;;;16.04;100.00;100491.44;4966728;28;20186;-45
2023/10/11 08:38:20;;;;;;;17.55;7.78;;;;;;;16.11;100.00;100488.31;4960537;28;20186;-43
2023/10/11 08:40:50;;;;;;;23.13;6.78;;;;;;;16.05;100.00;100495.03;4965993;28;20195;-48
2023/10/11 08:43:16;;;;;;;22.73;7.13;;;;;;;16.04;100.00;100496.84;4965129;28;20217;-45
2023/10/11 08:46:00;;;;;;;16.88;7.28;;;;;;;16.05;100.00;100485.06;4966549;28;20207;-46
2023/10/11 08:48:27;;;;;;;22.75;9.40;;;;;;;16.02;100.00;100496.06;4959621;28;20198;-47
2023/10/11 08:50:54;;;;;;;20.38;7.18;;;;;;;16.02;100.00;100487.97;4963875;28;20291;-48
2023/10/11 08:53:24;;;;;;;18.42;6.68;;;;;;;16.08;100.00;100485.84;4966849;28;20206;-45
2023/10/11 08:55:56;;;;;;;23.75;7.28;;;;;;;16.06;100.00;100491.34;4964467;28;20197;-45
2023/10/11 08:58:28;;;;;;;16.85;6.90;;;;;;;16.07;100.00;100490.38;4948009;28;20356;-45
2023/10/11 09:00:59;;;;;;;19.65;6.85;;;;;;;16.10;100.00;100492.00;4962993;28;20182;-45
2023/10/11 09:03:46;;;;;;;18.52;7.35;;;;;;;16.08;100.00;100504.75;4960326;28;20218;-45
2023/10/11 09:06:22;;;;;;;28.95;7.75;;;;;;;16.12;100.00;100503.59;4962501;28;20205;-44
2023/10/11 09:08:48;;;;;;;22.83;7.30;;;;;;;16.03;100.00;100505.94;4963212;28;20542;-46
2023/10/11 09:11:30;;;;;;;15.20;6.90;;;;;;;16.06;100.00;100504.84;4962791;28;20641;-46
2023/10/11 09:14:34;;;;;;;23.10;6.57;;;;;;;16.05;100.00;100508.53;4964731;28;20571;-46
2023/10/11 09:17:19;;;;;;;12.95;6.22;;;;;;;16.04;100.00;100498.69;4961461;28;20555;-46
2023/10/11 09:19:51;;;;;;;17.50;6.63;;;;;;;16.07;100.00;100503.91;4966374;28;20181;-46
2023/10/11 09:22:19;;;;;;;20.73;6.57;;;;;;;16.10;100.00;100502.81;4962775;28;20546;-45
2023/10/11 09:24:45;;;;;;;18.33;6.70;;;;;;;16.16;100.00;100503.28;4962122;28;20186;-45
2023/10/11 09:29:47;;;;;;;22.27;8.20;;;;;;;16.24;100.00;100503.63;4962767;28;20191;-45
2023/10/11 09:32:13;;;;;;;18.48;6.88;;;;;;;16.19;100.00;100513.03;4961349;28;20349;-46
2023/10/11 09:34:43;;;;;;;21.80;7.15;;;;;;;16.20;100.00;100514.72;4966752;28;20249;-46
2023/10/11 09:37:12;;;;;;;23.50;7.43;;;;;;;16.21;100.00;100522.75;4963644;28;20198;-46
2023/10/11 09:39:42;;;;;;;11.20;6.03;;;;;;;16.26;100.00;100530.56;4964725;28;20199;-46
2023/10/11 09:42:11;;;;;;;21.05;6.78;;;;;;;16.22;100.00;100512.81;4962272;28;20201;-45
2023/10/11 09:44:37;;;;;;;15.73;6.28;;;;;;;16.19;100.00;100511.16;4962082;28;20228;-47
2023/10/11 09:47:05;;;;;;;13.50;6.20;;;;;;;16.21;100.00;100516.47;4963553;28;20194;-46
2023/10/11 09:49:41;;;;;;;20.38;6.63;;;;;;;16.22;100.00;100507.41;4963762;28;20279;-46
2023/10/11 09:52:08;;;;;;;16.23;6.25;;;;;;;16.19;100.00;100504.91;4962882;28;20532;-45
2023/10/11 09:54:37;;;;;;;15.90;6.80;;;;;;;16.13;100.00;100508.88;4965565;28;20217;-45
2023/10/11 09:57:20;;;;;;;22.23;7.03;;;;;;;16.18;100.00;100508.56;4961383;28;20190;-45
2023/10/11 10:00:07;;;;;;;13.48;6.32;;;;;;;16.26;100.00;100504.38;4962295;28;20198;-45
2023/10/11 10:02:37;;;;;;;17.55;7.03;;;;;;;16.19;100.00;100523.84;4961621;28;20210;-44
2023/10/11 10:05:06;;;;;;;16.77;6.45;;;;;;;16.17;100.00;100523.91;4953319;28;20197;-45
2023/10/11 10:10:07;;;;;;;18.05;6.18;;;;;;;16.02;100.00;100527.63;4963244;28;20186;-45
2023/10/11 10:12:43;;;;;;;19.17;6.95;;;;;;;16.04;100.00;100525.69;4961439;28;20633;-46
2023/10/11 10:15:13;;;;;;;16.45;6.95;;;;;;;16.02;100.00;100527.63;4959182;28;20260;-45
2023/10/11 10:18:00;;;;;;;14.13;6.95;;;;;;;15.90;100.00;100533.88;4957803;28;20254;-44
2023/10/11 10:20:43;;;;;;;15.57;7.38;;;;;;;15.86;100.00;100533.19;4965340;28;20276;-47
2023/10/11 10:23:15;;;;;;;18.75;7.47;;;;;;;15.86;100.00;100528.66;4961055;28;20572;-46
2023/10/11 10:25:48;;;;;;;16.35;7.28;;;;;;;15.90;100.00;100532.03;4963393;28;20198;-46
2023/10/11 10:28:32;;;;;;;23.35;8.27;;;;;;;15.86;100.00;100535.88;4961463;28;20244;-45
2023/10/11 10:31:04;;;;;;;17.98;8.05;;;;;;;15.91;100.00;100531.03;4960279;28;20232;-45
2023/10/11 10:33:35;;;;;;;21.05;8.30;;;;;;;15.92;100.00;100538.19;4961350;28;20198;-45
2023/10/11 10:36:37;;;;;;;22.65;7.25;;;;;;;15.97;100.00;100530.66;4966141;28;20194;-45
2023/10/11 10:41:39;;;;;;;19.27;7.80;;;;;;;16.07;100.00;100547.16;4955194;28;20266;-46
2023/10/11 10:44:12;;;;;;;14.82;7.07;;;;;;;16.08;100.00;100532.66;4963597;28;20198;-44
2023/10/11 10:46:51;;;;;;;17.92;7.18;;;;;;;16.13;100.00;100538.59;4961014;28;20191;-47
2023/10/11 10:49:21;;;;;;;14.77;6.75;;;;;;;16.18;100.00;100544.59;4957921;28;20319;-46
2023/10/11 10:51:47;;;;;;;18.80;6.80;;;;;;;16.26;100.00;100538.66;4963231;28;20198;-45
2023/10/11 10:54:14;;;;;;;15.18;7.15;;;;;;;16.20;100.00;100541.75;4961139;28;20322;-45
2023/10/11 10:56:41;;;;;;;16.63;6.95;;;;;;;16.25;100.00;100528.84;4961589;28;20194;-45
2023/10/11 10:59:11;;;;;;;16.63;6.22;;;;;;;16.20;100.00;100529.16;4960753;28;20599;-46
2023/10/11 11:01:38;;;;;;;11.68;6.00;;;;;;;16.21;100.00;100521.88;4964062;28;20174;-47
2023/10/11 11:04:10;;;;;;;15.23;7.43;;;;;;;16.25;100.00;100516.19;4966059;28;20202;-46
2023/10/11 11:06:45;;;;;;;13.95;7.28;;;;;;;16.26;100.00;100519.75;4963600;28;20407;-46
2023/10/11 11:09:15;;;;;;;14.68;6.95;;;;;;;16.30;100.00;100515.00;4963685;28;20656;-45
2023/10/11 11:11:49;;;;;;;18.88;7.07;;;;;;;16.45;100.00;100506.72;4961301;28;20182;-46
2023/10/11 11:14:19;;;;;;;13.90;5.72;;;;;;;16.54;100.00;100512.47;4966228;28;20220;-45
2023/10/11 11:16:54;;;;;;;17.35;6.07;;;;;;;16.64;100.00;100505.47;4968459;28;20649;-45
2023/10/11 11:19:25;;;;;;;13.43;5.97;;;;;;;16.62;100.00;100500.16;4967713;28;20277;-47
2023/10/11 11:22:12;;;;;;;18.50;5.72;;;;;;;16.58;100.00;100486.97;4962864;28;20292;-46
2023/10/11 11:24:42;;;;;;;11.32;5.88;;;;;;;16.61;100.00;100467.78;4966529;28;20622;-46
2023/10/11 11:27:25;;;;;;;14.65;6.10;;;;;;;16.94;100.00;100474.56;4969849;28;20181;-45
2023/10/11 11:30:02;;;;;;;16.00;5.95;;;;;;;17.04;100.00;100472.94;4963241;28;20201;-45
2023/10/11 11:32:38;;;;;;;10.82;5.25;;;;;;;16.96;100.00;100468.06;4966470;28;20711;-47
2023/10/11 11:35:25;;;;;;;15.05;5.10;;;;;;;16.98;100.00;100465.25;4968888;28;20546;-45
2023/10/11 11:38:02;;;;;;;13.82;5.18;;;;;;;16.85;100.00;100471.53;4968510;28;20523;-46
2023/10/11 11:40:31;;;;;;;11.95;5.28;;;;;;;16.73;100.00;100466.97;4968291;28;20714;-47
2023/10/11 11:43:01;;;;;;;15.18;5.20;;;;;;;16.63;100.00;100457.75;4960599;28;20285;-47
2023/10/11 11:45:29;;;;;;;12.60;5.47;;;;;;;16.65;100.00;100466.63;4966175;28;20248;-45
2023/10/11 11:47:58;;;;;;;12.02;5.10;;;;;;;16.66;100.00;100473.75;4967025;28;20191;-45
2023/10/11 11:50:26;;;;;;;14.98;4.47;;;;;;;16.64;100.00;100464.91;4965123;28;20186;-47
2023/10/11 11:52:51;;;;;;;16.73;5.63;;;;;;;16.64;100.00;100462.19;4963627;28;20209;-47
2023/10/11 11:55:20;;;;;;;14.73;5.88;;;;;;;16.72;100.00;100457.09;4966041;28;20233;-45
2023/10/11 11:57:47;;;;;;;14.20;5.20;;;;;;;16.86;100.00;100459.75;4966518;28;20514;-46
2023/10/11 12:02:55;;;;;;;13.68;5.05;;;;;;;17.11;100.00;100446.31;4962403;28;20213;-45
2023/10/11 12:05:21;;;;;;;13.20;5.18;;;;;;;17.06;100.00;100441.22;4963938;28;20217;-46
2023/10/11 12:07:50;;;;;;;10.70;4.68;;;;;;;16.98;100.00;100447.16;4970530;28;20205;-46